sensor_id;sensor_type;location;lat;lon;timestamp;temperature;humidity
35563;DHT22;21665;40.108;18.302;2023-07-16T05:06:08;33.10;99.90
35563;DHT22;21665;40.108;18.302;2023-07-16T05:08:43;34.00;99.90
35563;DHT22;21665;40.108;18.302;2023-07-16T08:20:23;37.10;99.90
35563;DHT22;21665;40.108;18.302;2023-07-16T19:01:37;30.20;97.40
35563;DHT22;21665;40.108;18.302;2023-07-16T19:04:04;30.20;97.70
35563;DHT22;21665;40.108;18.302;2023-07-16T19:06:33;30.10;97.90
35563;DHT22;21665;40.108;18.302;2023-07-16T19:12:08;30.00;97.70
35563;DHT22;21665;40.108;18.302;2023-07-16T19:14:37;30.10;98.40
35563;DHT22;21665;40.108;18.302;2023-07-16T19:17:15;30.10;98.60
35563;DHT22;21665;40.108;18.302;2023-07-16T19:19:54;30.00;98.80
35563;DHT22;21665;40.108;18.302;2023-07-16T19:22:24;29.90;99.00
35563;DHT22;21665;40.108;18.302;2023-07-16T19:24:52;29.80;99.20
35563;DHT22;21665;40.108;18.302;2023-07-16T19:27:19;29.80;99.10
35563;DHT22;21665;40.108;18.302;2023-07-16T19:29:45;29.70;99.20
35563;DHT22;21665;40.108;18.302;2023-07-16T19:32:12;29.70;99.50
35563;DHT22;21665;40.108;18.302;2023-07-16T19:34:38;29.60;99.40
35563;DHT22;21665;40.108;18.302;2023-07-16T19:40:07;29.50;99.90
35563;DHT22;21665;40.108;18.302;2023-07-16T19:43:03;29.60;99.90
35563;DHT22;21665;40.108;18.302;2023-07-16T19:45:29;29.50;99.90
35563;DHT22;21665;40.108;18.302;2023-07-16T19:47:56;29.50;99.90
35563;DHT22;21665;40.108;18.302;2023-07-16T19:50:23;29.40;99.90
35563;DHT22;21665;40.108;18.302;2023-07-16T19:52:49;29.40;99.90
35563;DHT22;21665;40.108;18.302;2023-07-16T19:55:16;29.20;99.90
35563;DHT22;21665;40.108;18.302;2023-07-16T19:57:42;29.10;99.90
35563;DHT22;21665;40.108;18.302;2023-07-16T20:00:43;29.10;99.90
35563;DHT22;21665;40.108;18.302;2023-07-16T20:03:30;29.10;99.90
35563;DHT22;21665;40.108;18.302;2023-07-16T20:05:57;29.10;99.90
35563;DHT22;21665;40.108;18.302;2023-07-16T20:08:23;29.00;99.90
35563;DHT22;21665;40.108;18.302;2023-07-16T20:10:50;28.90;99.90
35563;DHT22;21665;40.108;18.302;2023-07-16T20:13:17;28.90;99.90
35563;DHT22;21665;40.108;18.302;2023-07-16T20:15:43;28.90;99.90
35563;DHT22;21665;40.108;18.302;2023-07-16T20:18:15;28.80;99.90
35563;DHT22;21665;40.108;18.302;2023-07-16T20:20:42;28.80;99.90
35563;DHT22;21665;40.108;18.302;2023-07-16T20:23:09;28.70;99.90
35563;DHT22;21665;40.108;18.302;2023-07-16T20:25:36;28.60;99.90
35563;DHT22;21665;40.108;18.302;2023-07-16T20:28:07;28.50;99.90
35563;DHT22;21665;40.108;18.302;2023-07-16T20:30:34;28.50;99.90
35563;DHT22;21665;40.108;18.302;2023-07-16T20:33:01;28.50;99.90
35563;DHT22;21665;40.108;18.302;2023-07-16T20:35:27;28.50;99.90
35563;DHT22;21665;40.108;18.302;2023-07-16T20:37:54;28.40;99.90
35563;DHT22;21665;40.108;18.302;2023-07-16T20:40:20;28.40;99.90
35563;DHT22;21665;40.108;18.302;2023-07-16T20:42:47;28.40;99.90
35563;DHT22;21665;40.108;18.302;2023-07-16T20:45:16;28.40;99.90
35563;DHT22;21665;40.108;18.302;2023-07-16T20:47:49;28.40;99.90
35563;DHT22;21665;40.108;18.302;2023-07-16T20:50:19;28.30;99.90
35563;DHT22;21665;40.108;18.302;2023-07-16T20:52:54;28.10;99.90
35563;DHT22;21665;40.108;18.302;2023-07-16T20:55:22;28.10;99.90
35563;DHT22;21665;40.108;18.302;2023-07-16T20:57:50;28.00;99.90
35563;DHT22;21665;40.108;18.302;2023-07-16T21:00:17;28.00;99.90
35563;DHT22;21665;40.108;18.302;2023-07-16T21:02:46;28.10;99.90
35563;DHT22;21665;40.108;18.302;2023-07-16T21:05:14;28.00;99.90
35563;DHT22;21665;40.108;18.302;2023-07-16T21:07:41;27.90;99.90
35563;DHT22;21665;40.108;18.302;2023-07-16T21:10:14;27.90;99.90
35563;DHT22;21665;40.108;18.302;2023-07-16T21:12:44;27.90;99.90
35563;DHT22;21665;40.108;18.302;2023-07-16T21:15:27;27.90;99.90
35563;DHT22;21665;40.108;18.302;2023-07-16T21:18:22;27.90;99.90
35563;DHT22;21665;40.108;18.302;2023-07-16T21:20:58;27.90;99.90
35563;DHT22;21665;40.108;18.302;2023-07-16T21:23:36;27.80;99.90
35563;DHT22;21665;40.108;18.302;2023-07-16T21:26:45;27.80;99.90
35563;DHT22;21665;40.108;18.302;2023-07-16T21:29:20;27.70;99.90
35563;DHT22;21665;40.108;18.302;2023-07-16T21:31:56;27.50;99.90
35563;DHT22;21665;40.108;18.302;2023-07-16T21:34:25;27.50;99.90
35563;DHT22;21665;40.108;18.302;2023-07-16T21:36:57;27.50;99.90
35563;DHT22;21665;40.108;18.302;2023-07-16T21:39:27;27.60;99.90
35563;DHT22;21665;40.108;18.302;2023-07-16T21:41:59;27.60;99.90
35563;DHT22;21665;40.108;18.302;2023-07-16T21:44:31;27.70;99.90
35563;DHT22;21665;40.108;18.302;2023-07-16T21:46:58;27.60;99.90
35563;DHT22;21665;40.108;18.302;2023-07-16T21:49:25;27.60;99.90
35563;DHT22;21665;40.108;18.302;2023-07-16T21:51:59;27.50;99.90
35563;DHT22;21665;40.108;18.302;2023-07-16T21:54:26;27.40;99.90
35563;DHT22;21665;40.108;18.302;2023-07-16T21:57:05;27.20;99.90
35563;DHT22;21665;40.108;18.302;2023-07-16T21:59:38;27.10;99.90
35563;DHT22;21665;40.108;18.302;2023-07-16T22:02:04;27.10;99.90
35563;DHT22;21665;40.108;18.302;2023-07-16T22:04:31;27.10;99.90
35563;DHT22;21665;40.108;18.302;2023-07-16T22:06:58;27.10;99.90
35563;DHT22;21665;40.108;18.302;2023-07-16T22:12:22;27.00;99.90
35563;DHT22;21665;40.108;18.302;2023-07-16T22:18:46;26.80;99.90
35563;DHT22;21665;40.108;18.302;2023-07-16T22:25:31;26.70;99.90
35563;DHT22;21665;40.108;18.302;2023-07-16T22:28:43;26.70;99.90
35563;DHT22;21665;40.108;18.302;2023-07-16T22:31:09;26.70;99.90
35563;DHT22;21665;40.108;18.302;2023-07-16T22:33:41;26.70;99.90
35563;DHT22;21665;40.108;18.302;2023-07-16T22:36:17;26.60;99.90
35563;DHT22;21665;40.108;18.302;2023-07-16T22:38:44;26.60;99.90
35563;DHT22;21665;40.108;18.302;2023-07-16T22:41:10;26.70;99.90
35563;DHT22;21665;40.108;18.302;2023-07-16T22:43:37;26.70;99.90
35563;DHT22;21665;40.108;18.302;2023-07-16T22:46:04;26.70;99.90
35563;DHT22;21665;40.108;18.302;2023-07-16T22:48:31;26.70;99.90
35563;DHT22;21665;40.108;18.302;2023-07-16T22:50:57;26.70;99.90
35563;DHT22;21665;40.108;18.302;2023-07-16T22:53:24;26.70;99.90
35563;DHT22;21665;40.108;18.302;2023-07-16T22:55:50;26.70;99.90
35563;DHT22;21665;40.108;18.302;2023-07-16T22:58:16;26.50;99.90
35563;DHT22;21665;40.108;18.302;2023-07-16T23:00:43;26.50;99.90
35563;DHT22;21665;40.108;18.302;2023-07-16T23:03:10;26.50;99.90
35563;DHT22;21665;40.108;18.302;2023-07-16T23:05:48;26.50;99.90
35563;DHT22;21665;40.108;18.302;2023-07-16T23:08:15;26.50;99.90
35563;DHT22;21665;40.108;18.302;2023-07-16T23:10:42;26.50;99.90
35563;DHT22;21665;40.108;18.302;2023-07-16T23:13:08;26.60;99.90
35563;DHT22;21665;40.108;18.302;2023-07-16T23:15:35;26.50;99.90
35563;DHT22;21665;40.108;18.302;2023-07-16T23:18:01;26.50;99.90
35563;DHT22;21665;40.108;18.302;2023-07-16T23:20:29;26.30;99.90
35563;DHT22;21665;40.108;18.302;2023-07-16T23:22:55;26.20;99.90
35563;DHT22;21665;40.108;18.302;2023-07-16T23:25:24;26.20;99.90
35563;DHT22;21665;40.108;18.302;2023-07-16T23:27:51;26.20;99.90
35563;DHT22;21665;40.108;18.302;2023-07-16T23:30:17;26.20;99.90
35563;DHT22;21665;40.108;18.302;2023-07-16T23:32:47;26.00;99.90
35563;DHT22;21665;40.108;18.302;2023-07-16T23:35:13;25.90;99.90
35563;DHT22;21665;40.108;18.302;2023-07-16T23:37:40;25.80;99.90
35563;DHT22;21665;40.108;18.302;2023-07-16T23:40:07;25.80;99.90
35563;DHT22;21665;40.108;18.302;2023-07-16T23:42:34;25.70;99.90
35563;DHT22;21665;40.108;18.302;2023-07-16T23:45:00;25.60;99.90
35563;DHT22;21665;40.108;18.302;2023-07-16T23:47:27;25.60;99.90
35563;DHT22;21665;40.108;18.302;2023-07-16T23:49:54;25.60;99.90
35563;DHT22;21665;40.108;18.302;2023-07-16T23:52:23;25.60;99.90
35563;DHT22;21665;40.108;18.302;2023-07-16T23:54:49;25.50;99.90
35563;DHT22;21665;40.108;18.302;2023-07-16T23:57:23;25.40;99.90
35563;DHT22;21665;40.108;18.302;2023-07-16T23:59:50;25.30;99.90
